createdAt,value
2023-10-21T00:01:15.162Z,24.40
2023-10-21T00:03:43.495Z,33.70
2023-10-21T00:06:11.864Z,26.20
2023-10-21T00:08:40.274Z,16.10
2023-10-21T00:11:10.719Z,29.60
2023-10-21T00:13:39.092Z,33.20
2023-10-21T00:16:07.241Z,30.20
2023-10-21T00:18:35.472Z,22.20
2023-10-21T00:21:04.634Z,28.40
2023-10-21T00:23:33.045Z,23.40
2023-10-21T00:26:04.665Z,23.20
2023-10-21T00:28:33.979Z,18.80
2023-10-21T00:31:07.247Z,22.00
2023-10-21T00:33:35.387Z,19.90
2023-10-21T00:36:05.236Z,23.60
2023-10-21T00:38:33.855Z,23.30
2023-10-21T00:41:02.184Z,26.30
2023-10-21T00:43:33.715Z,35.10
2023-10-21T00:46:07.750Z,18.40
2023-10-21T00:48:36.472Z,25.30
2023-10-21T00:51:05.079Z,29.00
2023-10-21T00:53:35.019Z,21.10
2023-10-21T00:56:04.166Z,25.90
2023-10-21T00:58:32.638Z,18.20
2023-10-21T01:01:04.032Z,20.60
2023-10-21T01:03:32.486Z,23.00
2023-10-21T01:06:01.258Z,23.50
2023-10-21T01:08:29.539Z,28.80
2023-10-21T01:10:59.839Z,24.30
2023-10-21T01:13:29.144Z,27.70
2023-10-21T01:15:57.418Z,19.60
2023-10-21T01:18:26.833Z,20.70
2023-10-21T01:20:55.172Z,22.40
2023-10-21T01:23:23.382Z,29.40
2023-10-21T01:25:52.030Z,30.30
2023-10-21T01:28:20.739Z,20.40
2023-10-21T01:30:49.559Z,20.10
2023-10-21T01:33:17.794Z,34.50
2023-10-21T01:35:47.594Z,36.60
2023-10-21T01:38:19.690Z,25.20
2023-10-21T01:40:48.706Z,35.30
2023-10-21T01:43:17.056Z,27.40
2023-10-21T01:45:45.170Z,37.30
2023-10-21T01:48:13.386Z,29.10
2023-10-21T01:50:41.663Z,31.40
2023-10-21T01:53:10.075Z,37.50
2023-10-21T01:55:38.396Z,27.00
2023-10-21T01:58:06.505Z,25.00
2023-10-21T02:00:35.236Z,28.10
2023-10-21T02:03:04.564Z,26.00
2023-10-21T02:05:32.967Z,24.20
2023-10-21T02:08:01.527Z,30.70
2023-10-21T02:10:29.692Z,26.00
2023-10-21T02:12:57.967Z,25.40
2023-10-21T02:15:26.039Z,26.10
2023-10-21T02:17:54.261Z,23.40
2023-10-21T02:20:22.533Z,29.90
2023-10-21T02:22:50.665Z,31.10
2023-10-21T02:25:20.794Z,29.80
2023-10-21T02:27:49.063Z,22.90
2023-10-21T02:30:17.925Z,26.30
2023-10-21T02:32:47.250Z,22.30
2023-10-21T02:35:16.361Z,19.40
2023-10-21T02:37:44.689Z,24.60
2023-10-21T02:40:18.890Z,24.30
2023-10-21T02:42:47.166Z,20.50
2023-10-21T02:45:15.315Z,29.90
2023-10-21T02:47:43.495Z,17.40
2023-10-21T02:50:11.680Z,22.40
2023-10-21T02:52:39.855Z,22.80
2023-10-21T02:55:08.639Z,23.20
2023-10-21T02:57:36.832Z,20.40
2023-10-21T03:00:07.184Z,24.00
2023-10-21T03:02:35.694Z,21.80
2023-10-21T03:05:04.593Z,33.50
2023-10-21T03:07:32.683Z,28.40
2023-10-21T03:10:01.693Z,28.20
2023-10-21T03:12:30.384Z,25.60
2023-10-21T03:14:59.430Z,25.90
2023-10-21T03:17:28.849Z,15.40
2023-10-21T03:19:56.932Z,29.40
2023-10-21T03:22:27.044Z,34.40
2023-10-21T03:24:55.222Z,31.40
2023-10-21T03:27:23.436Z,25.50
2023-10-21T03:29:51.783Z,17.30
2023-10-21T03:32:19.926Z,29.10
2023-10-21T03:34:48.098Z,31.30
2023-10-21T03:37:16.918Z,28.70
2023-10-21T03:39:45.433Z,27.60
2023-10-21T03:42:13.552Z,18.90
2023-10-21T03:44:41.968Z,28.60
2023-10-21T03:47:10.034Z,24.60
2023-10-21T03:49:38.231Z,20.00
2023-10-21T03:52:07.701Z,22.90
2023-10-21T03:54:35.991Z,32.40
2023-10-21T03:57:04.641Z,23.20
2023-10-21T03:59:33.925Z,24.70
2023-10-21T04:02:01.932Z,21.70
2023-10-21T04:04:30.038Z,30.80
2023-10-21T04:06:58.222Z,29.40
2023-10-21T04:09:28.094Z,16.40
2023-10-21T04:11:57.068Z,24.40
2023-10-21T04:14:25.177Z,24.00
2023-10-21T04:16:53.492Z,24.80
2023-10-21T04:19:21.759Z,28.20
2023-10-21T04:21:49.883Z,25.00
2023-10-21T04:24:18.097Z,37.00
2023-10-21T04:26:46.252Z,22.60
2023-10-21T04:29:17.039Z,22.00
2023-10-21T04:31:45.173Z,26.20
2023-10-21T04:34:13.846Z,24.60
2023-10-21T04:36:41.879Z,28.50
2023-10-21T04:39:10.089Z,24.80
2023-10-21T04:41:38.191Z,21.00
2023-10-21T04:44:06.712Z,27.40
2023-10-21T04:46:35.331Z,24.70
2023-10-21T04:49:05.221Z,22.90
2023-10-21T04:51:33.416Z,27.90
2023-10-21T04:54:01.576Z,35.00
2023-10-21T04:56:29.796Z,28.60
2023-10-21T04:58:58.237Z,22.00
2023-10-21T05:01:26.325Z,28.30
2023-10-21T05:03:54.748Z,15.40
2023-10-21T05:06:23.549Z,22.50
2023-10-21T05:08:51.882Z,27.00
2023-10-21T05:11:20.156Z,20.70
2023-10-21T05:13:48.308Z,19.50
2023-10-21T05:16:16.590Z,19.70
2023-10-21T05:18:44.816Z,26.30
2023-10-21T05:21:12.952Z,18.60
2023-10-21T05:23:41.322Z,27.70
2023-10-21T05:26:09.690Z,27.50
2023-10-21T05:28:38.036Z,29.50
2023-10-21T05:31:08.945Z,24.50
2023-10-21T05:33:37.487Z,23.40
2023-10-21T05:36:05.887Z,19.90
2023-10-21T05:38:34.158Z,25.10
2023-10-21T05:41:02.213Z,21.30
2023-10-21T05:43:30.535Z,19.50
2023-10-21T05:46:03.914Z,25.20
2023-10-21T05:48:32.355Z,21.70
2023-10-21T05:51:04.104Z,23.90
2023-10-21T05:53:32.275Z,26.40
2023-10-21T05:56:00.371Z,13.50
2023-10-21T05:58:33.021Z,17.70
2023-10-21T06:01:10.275Z,11.30
2023-10-21T06:06:07.499Z,14.40
2023-10-21T06:08:35.787Z,21.50
2023-10-21T06:11:04.091Z,17.80
2023-10-21T06:13:32.278Z,20.20
2023-10-21T06:16:00.428Z,17.80
2023-10-21T06:18:28.712Z,18.90
2023-10-21T06:20:57.225Z,14.90
2023-10-21T06:23:25.578Z,16.50
2023-10-21T06:25:53.842Z,26.90
2023-10-21T06:28:23.178Z,18.10
2023-10-21T06:30:51.301Z,18.30
2023-10-21T06:33:19.619Z,15.20
2023-10-21T06:35:48.329Z,18.10
2023-10-21T06:38:16.620Z,18.80
2023-10-21T06:41:02.528Z,25.80
2023-10-21T06:43:33.955Z,22.90
2023-10-21T06:46:02.186Z,25.80
2023-10-21T06:48:31.290Z,21.10
2023-10-21T06:51:00.538Z,10.20
2023-10-21T06:53:28.745Z,24.20
2023-10-21T06:55:57.562Z,17.20
2023-10-21T06:58:28.052Z,11.70
2023-10-21T07:00:56.782Z,15.00
2023-10-21T07:03:25.026Z,16.30
2023-10-21T07:05:53.425Z,15.60
2023-10-21T07:08:22.225Z,27.60
2023-10-21T07:10:54.163Z,25.50
2023-10-21T07:13:22.423Z,16.50
2023-10-21T07:15:52.705Z,13.10
2023-10-21T07:18:21.050Z,20.60
2023-10-21T07:20:57.681Z,13.40
2023-10-21T07:23:25.983Z,16.80
2023-10-21T07:25:55.055Z,13.60
2023-10-21T07:28:23.159Z,18.00
2023-10-21T07:30:53.538Z,17.60
2023-10-21T07:33:23.088Z,19.00
2023-10-21T07:35:55.405Z,12.40
2023-10-21T07:38:24.557Z,20.60
2023-10-21T07:40:52.752Z,12.50
2023-10-21T07:43:21.496Z,14.10
2023-10-21T07:45:50.341Z,16.60
2023-10-21T07:48:18.593Z,10.60
2023-10-21T07:50:53.419Z,13.20
2023-10-21T07:53:21.986Z,26.40
2023-10-21T07:55:50.919Z,16.50
2023-10-21T07:58:19.124Z,12.60
2023-10-21T08:00:47.488Z,19.40
2023-10-21T08:03:15.878Z,13.10
2023-10-21T08:05:44.389Z,12.70
2023-10-21T08:08:12.661Z,17.70
2023-10-21T08:10:40.723Z,11.20
2023-10-21T08:13:09.003Z,13.40
2023-10-21T08:15:37.083Z,18.50
2023-10-21T08:18:05.542Z,17.20
2023-10-21T08:20:33.904Z,14.40
2023-10-21T08:23:02.360Z,16.20
2023-10-21T08:25:30.410Z,14.40
2023-10-21T08:27:59.966Z,9.10
2023-10-21T08:30:28.922Z,10.30
2023-10-21T08:32:57.022Z,14.50
2023-10-21T08:35:25.278Z,12.80
2023-10-21T08:37:56.764Z,6.80
2023-10-21T08:40:26.103Z,7.30
2023-10-21T08:43:01.982Z,10.40
2023-10-21T08:46:07.979Z,11.20
2023-10-21T08:48:39.470Z,11.80
2023-10-21T08:51:27.513Z,9.30
2023-10-21T08:54:00.591Z,7.40
2023-10-21T08:56:31.845Z,5.50
2023-10-21T08:59:00.643Z,13.20
2023-10-21T09:01:29.482Z,16.30
2023-10-21T09:03:58.848Z,13.10
2023-10-21T09:06:27.173Z,7.50
2023-10-21T09:08:55.718Z,5.90
2023-10-21T09:11:29.230Z,8.10
2023-10-21T09:14:00.450Z,11.10
2023-10-21T09:16:32.225Z,11.10
2023-10-21T09:19:01.064Z,5.80
2023-10-21T09:21:40.567Z,8.60
2023-10-21T09:24:34.720Z,12.80
2023-10-21T09:27:04.715Z,10.90
2023-10-21T09:29:33.054Z,7.60
2023-10-21T09:32:01.373Z,11.20
2023-10-21T09:34:33.324Z,14.00
2023-10-21T09:37:06.591Z,12.70
2023-10-21T09:39:42.504Z,11.70
2023-10-21T09:42:10.804Z,13.60
2023-10-21T09:44:39.793Z,10.60
2023-10-21T09:47:09.403Z,8.00
2023-10-21T09:49:41.916Z,13.60
2023-10-21T09:52:16.308Z,17.50
2023-10-21T09:55:00.146Z,11.60
2023-10-21T09:57:29.300Z,10.10
2023-10-21T09:59:59.891Z,10.00
2023-10-21T10:02:28.132Z,4.90
2023-10-21T10:04:56.924Z,7.70
2023-10-21T10:07:39.921Z,5.90
2023-10-21T10:10:14.428Z,9.40
2023-10-21T10:12:50.932Z,6.40
2023-10-21T10:15:29.374Z,4.50
2023-10-21T10:17:57.758Z,5.60
2023-10-21T10:20:27.562Z,3.70
2023-10-21T10:23:11.329Z,5.40
2023-10-21T10:25:48.116Z,5.00
2023-10-21T10:28:20.516Z,11.80
2023-10-21T10:30:53.660Z,6.10
2023-10-21T10:33:29.805Z,7.00
2023-10-21T10:35:59.784Z,6.70
2023-10-21T10:38:35.469Z,9.00
2023-10-21T10:43:40.540Z,7.70
2023-10-21T10:46:10.013Z,7.70
2023-10-21T10:48:40.708Z,6.10
2023-10-21T10:51:19.880Z,5.90
2023-10-21T10:53:54.245Z,4.80
2023-10-21T10:56:22.919Z,6.40
2023-10-21T10:58:51.207Z,7.60
2023-10-21T11:01:29.367Z,6.30
2023-10-21T11:04:02.720Z,5.50
2023-10-21T11:06:33.036Z,5.40
2023-10-21T11:09:01.562Z,6.90
2023-10-21T11:11:29.799Z,4.50
2023-10-21T11:13:58.015Z,8.00
2023-10-21T11:16:26.799Z,5.50
2023-10-21T11:18:56.058Z,4.70
2023-10-21T11:21:53.515Z,5.90
2023-10-21T11:24:23.558Z,9.70
2023-10-21T11:26:52.366Z,9.20
2023-10-21T11:29:21.297Z,7.70
2023-10-21T11:31:49.638Z,6.70
2023-10-21T11:34:21.292Z,10.80
2023-10-21T11:36:49.947Z,6.10
2023-10-21T11:39:32.103Z,7.90
2023-10-21T11:42:01.283Z,8.80
2023-10-21T11:44:34.024Z,4.00
2023-10-21T11:47:08.043Z,6.00
2023-10-21T11:49:44.718Z,9.70
2023-10-21T11:52:14.436Z,8.10
2023-10-21T11:54:50.350Z,6.50
2023-10-21T11:57:54.854Z,4.50
2023-10-21T12:00:33.164Z,6.50
2023-10-21T12:03:20.324Z,6.30
2023-10-21T12:06:07.377Z,7.50
2023-10-21T12:09:12.624Z,5.50
2023-10-21T12:11:53.538Z,8.40
2023-10-21T12:14:40.389Z,12.20
2023-10-21T12:17:29.019Z,4.00
2023-10-21T12:19:57.072Z,8.10
2023-10-21T12:22:44.041Z,7.00
2023-10-21T12:25:30.727Z,4.30
2023-10-21T12:28:08.267Z,6.10
2023-10-21T12:30:54.799Z,6.20
2023-10-21T12:33:42.611Z,7.80
2023-10-21T12:36:23.088Z,11.20
2023-10-21T12:39:09.774Z,5.90
2023-10-21T12:41:39.620Z,7.50
2023-10-21T12:44:15.266Z,6.20
2023-10-21T12:49:25.941Z,6.50
2023-10-21T12:51:56.412Z,8.40
2023-10-21T12:54:25.108Z,5.90
2023-10-21T12:56:53.296Z,5.20
2023-10-21T12:59:22.012Z,6.90
2023-10-21T13:01:57.285Z,4.50
2023-10-21T13:04:30.007Z,8.80
2023-10-21T13:06:58.134Z,8.80
2023-10-21T13:09:31.247Z,6.50
2023-10-21T13:12:02.041Z,6.90
2023-10-21T13:14:30.370Z,8.70
2023-10-21T13:16:58.700Z,10.00
2023-10-21T13:19:28.488Z,6.60
2023-10-21T13:21:58.523Z,4.90
2023-10-21T13:24:34.749Z,6.10
2023-10-21T13:27:07.819Z,12.20
2023-10-21T13:29:37.434Z,6.30
2023-10-21T13:32:05.730Z,7.30
2023-10-21T13:34:34.038Z,6.50
2023-10-21T13:37:02.647Z,7.40
2023-10-21T13:39:30.828Z,10.80
2023-10-21T13:42:00.148Z,5.50
2023-10-21T13:44:30.079Z,6.70
2023-10-21T13:46:58.139Z,5.90
2023-10-21T13:49:27.810Z,7.70
2023-10-21T13:51:55.929Z,8.80
2023-10-21T13:54:24.074Z,4.80
2023-10-21T13:56:52.251Z,7.60
2023-10-21T13:59:22.166Z,4.20
2023-10-21T14:01:50.347Z,5.20
2023-10-21T14:04:24.437Z,6.40
2023-10-21T14:06:53.700Z,7.20
2023-10-21T14:09:25.352Z,7.00
2023-10-21T14:11:53.901Z,4.80
2023-10-21T14:14:22.776Z,6.40
2023-10-21T14:16:50.914Z,8.50
2023-10-21T14:19:20.855Z,6.30
2023-10-21T14:21:52.082Z,7.70
2023-10-21T14:24:20.762Z,7.30
2023-10-21T14:26:49.264Z,10.30
2023-10-21T14:29:17.871Z,7.60
2023-10-21T14:31:48.737Z,6.10
2023-10-21T14:34:17.984Z,8.40
2023-10-21T14:36:46.969Z,8.80
2023-10-21T14:39:15.516Z,4.90
2023-10-21T14:41:43.605Z,7.60
2023-10-21T14:44:11.883Z,10.50
2023-10-21T14:46:40.245Z,11.30
2023-10-21T14:49:09.217Z,7.10
2023-10-21T14:51:42.620Z,7.40
2023-10-21T14:54:11.070Z,14.70
2023-10-21T14:56:39.361Z,11.70
2023-10-21T14:59:07.463Z,10.20
2023-10-21T15:01:36.453Z,10.80
2023-10-21T15:04:08.481Z,15.10
2023-10-21T15:06:37.178Z,15.90
2023-10-21T15:09:05.672Z,12.30
2023-10-21T15:11:34.199Z,8.50
2023-10-21T15:14:02.471Z,19.20
2023-10-21T15:16:30.684Z,12.60
2023-10-21T15:18:58.861Z,11.40
2023-10-21T15:21:27.175Z,9.40
2023-10-21T15:23:57.490Z,11.20
2023-10-21T15:26:25.815Z,8.70
2023-10-21T15:28:54.058Z,15.00
2023-10-21T15:31:22.286Z,13.70
2023-10-21T15:33:50.665Z,9.80
2023-10-21T15:36:19.295Z,14.40
2023-10-21T15:38:53.690Z,10.90
2023-10-21T15:41:24.046Z,12.60
2023-10-21T15:43:53.345Z,13.00
2023-10-21T15:46:21.817Z,12.60
2023-10-21T15:48:50.065Z,13.30
2023-10-21T15:51:18.343Z,13.60
2023-10-21T15:53:47.300Z,13.10
2023-10-21T15:56:15.764Z,11.80
2023-10-21T15:58:43.930Z,13.10
2023-10-21T16:01:15.459Z,10.40
2023-10-21T16:03:44.045Z,14.40
2023-10-21T16:06:13.284Z,11.40
2023-10-21T16:08:41.616Z,10.80
2023-10-21T16:11:09.963Z,12.60
2023-10-21T16:13:59.473Z,17.60
2023-10-21T16:16:34.091Z,9.60
2023-10-21T16:19:06.270Z,11.80
2023-10-21T16:21:34.863Z,14.60
2023-10-21T16:24:04.340Z,18.80
2023-10-21T16:26:32.916Z,19.00
2023-10-21T16:29:01.025Z,18.30
2023-10-21T16:31:29.307Z,18.80
2023-10-21T16:33:57.558Z,14.10
2023-10-21T16:36:25.781Z,12.20
2023-10-21T16:38:54.478Z,12.50
2023-10-21T16:41:23.374Z,16.30
2023-10-21T16:43:53.502Z,302.20
2023-10-21T16:46:21.877Z,241.10
2023-10-21T16:48:50.449Z,227.90
2023-10-21T16:51:19.258Z,189.10
2023-10-21T17:01:07.330Z,89.80
2023-10-21T17:03:39.666Z,71.50
2023-10-21T17:06:07.211Z,54.40
2023-10-21T17:08:36.561Z,31.60
2023-10-21T17:11:04.581Z,27.30
2023-10-21T17:13:31.845Z,24.10
2023-10-21T17:15:58.816Z,28.40
2023-10-21T17:18:25.953Z,24.00
2023-10-21T17:20:52.852Z,20.20
2023-10-21T17:23:19.660Z,22.80
2023-10-21T17:36:21.684Z,29.80
2023-10-21T17:38:50.169Z,20.10
2023-10-21T17:41:18.289Z,20.40
2023-10-21T17:43:47.719Z,20.00
2023-10-21T17:46:15.889Z,16.40
2023-10-21T17:48:44.133Z,16.80
2023-10-21T17:51:12.783Z,18.80
2023-10-21T17:53:40.927Z,12.20
2023-10-21T17:56:10.660Z,17.10
2023-10-21T17:58:38.813Z,20.50
2023-10-21T18:01:07.695Z,16.60
2023-10-21T18:03:37.702Z,19.60
2023-10-21T18:06:07.421Z,16.20
2023-10-21T18:08:35.565Z,14.00
2023-10-21T18:11:11.516Z,14.60
2023-10-21T18:13:45.560Z,18.80
2023-10-21T18:16:16.373Z,18.80
2023-10-21T18:18:45.255Z,14.10
2023-10-21T18:21:13.436Z,13.00
2023-10-21T18:23:41.633Z,15.40
2023-10-21T18:26:09.723Z,17.10
2023-10-21T18:28:37.951Z,13.70
2023-10-21T18:31:06.192Z,18.50
2023-10-21T18:33:34.313Z,23.50
2023-10-21T18:36:02.665Z,50.70
2023-10-21T18:38:30.772Z,20.60
2023-10-21T18:40:58.894Z,13.40
2023-10-21T18:43:27.051Z,19.10
2023-10-21T18:45:58.015Z,14.90
2023-10-21T18:48:26.228Z,8.60
2023-10-21T18:50:58.746Z,12.30
2023-10-21T18:53:27.364Z,11.30
2023-10-21T18:55:55.595Z,14.80
2023-10-21T18:58:23.806Z,15.20
2023-10-21T19:00:57.203Z,13.70
2023-10-21T19:03:25.602Z,14.20
2023-10-21T19:05:54.224Z,15.70
2023-10-21T19:08:22.313Z,11.10
2023-10-21T19:10:50.591Z,13.70
2023-10-21T19:13:19.072Z,12.20
2023-10-21T19:15:47.230Z,8.70
2023-10-21T19:18:16.206Z,7.10
2023-10-21T19:20:44.347Z,7.20
2023-10-21T19:23:12.461Z,7.20
2023-10-21T19:25:46.283Z,9.30
2023-10-21T19:28:14.478Z,9.90
2023-10-21T19:30:42.747Z,10.00
2023-10-21T19:33:11.053Z,7.10
2023-10-21T19:35:39.384Z,9.30
2023-10-21T19:38:07.546Z,9.00
2023-10-21T19:40:39.216Z,8.10
2023-10-21T19:43:08.749Z,8.50
2023-10-21T19:45:46.391Z,7.70
2023-10-21T19:48:14.641Z,8.60
2023-10-21T19:50:44.588Z,10.40
2023-10-21T19:53:12.846Z,11.80
2023-10-21T19:55:41.072Z,12.30
2023-10-21T19:58:09.159Z,16.30
2023-10-21T20:00:37.383Z,8.10
2023-10-21T20:03:05.787Z,10.70
2023-10-21T20:05:35.009Z,14.00
2023-10-21T20:08:03.165Z,9.80
2023-10-21T20:10:31.349Z,7.70
2023-10-21T20:12:59.684Z,8.10
2023-10-21T20:15:27.895Z,9.30
2023-10-21T20:17:56.595Z,7.50
2023-10-21T20:20:24.883Z,7.20
2023-10-21T20:22:53.097Z,7.10
2023-10-21T20:25:21.799Z,11.40
2023-10-21T20:27:49.987Z,9.30
2023-10-21T20:30:18.248Z,6.20
2023-10-21T20:32:49.789Z,7.40
2023-10-21T20:37:52.555Z,15.20
2023-10-21T20:40:20.750Z,20.30
2023-10-21T20:42:48.849Z,10.40
2023-10-21T20:45:17.119Z,10.70
2023-10-21T20:47:45.202Z,13.80
2023-10-21T20:50:13.721Z,16.50
2023-10-21T20:52:41.867Z,10.30
2023-10-21T20:55:15.227Z,9.20
2023-10-21T20:57:43.985Z,11.60
2023-10-21T21:00:12.610Z,13.40
2023-10-21T21:02:41.064Z,13.00
2023-10-21T21:05:15.866Z,12.60
2023-10-21T21:10:16.083Z,13.50
2023-10-21T21:12:45.812Z,17.50
2023-10-21T21:15:14.246Z,15.80
2023-10-21T21:17:42.303Z,17.60
2023-10-21T21:20:10.880Z,15.20
2023-10-21T21:22:39.937Z,16.80
2023-10-21T21:25:08.999Z,16.90
2023-10-21T21:27:38.160Z,18.10
2023-10-21T21:30:09.360Z,18.80
2023-10-21T21:32:37.579Z,19.80
2023-10-21T21:35:07.340Z,19.30
2023-10-21T21:37:35.634Z,18.40
2023-10-21T21:40:05.641Z,21.60
2023-10-21T21:42:35.114Z,18.70
2023-10-21T21:45:04.628Z,21.90
2023-10-21T21:47:36.151Z,16.00
2023-10-21T21:50:05.701Z,17.30
2023-10-21T21:52:34.747Z,20.50
2023-10-21T21:55:02.968Z,20.80
2023-10-21T21:57:31.168Z,20.40
2023-10-21T21:59:59.302Z,14.50
2023-10-21T22:02:28.881Z,21.10
2023-10-21T22:04:57.063Z,20.60
2023-10-21T22:07:26.266Z,11.20
2023-10-21T22:09:54.776Z,11.80
2023-10-21T22:12:22.900Z,18.00
2023-10-21T22:14:51.122Z,18.50
2023-10-21T22:17:19.240Z,10.90
2023-10-21T22:19:48.165Z,19.50
2023-10-21T22:22:16.259Z,18.30
2023-10-21T22:24:45.040Z,10.00
2023-10-21T22:27:18.542Z,18.50
2023-10-21T22:29:46.797Z,12.10
2023-10-21T22:32:14.957Z,10.70
2023-10-21T22:34:43.051Z,10.50
2023-10-21T22:37:11.099Z,6.80
2023-10-21T22:39:39.894Z,13.30
2023-10-21T22:42:08.111Z,13.90
2023-10-21T22:44:38.342Z,9.80
2023-10-21T22:47:09.685Z,6.70
2023-10-21T22:49:38.113Z,10.40
2023-10-21T22:52:06.425Z,10.90
2023-10-21T22:54:34.520Z,12.40
2023-10-21T22:57:03.060Z,8.30
2023-10-21T22:59:31.166Z,11.10
2023-10-21T23:02:00.601Z,11.80
2023-10-21T23:04:28.687Z,9.60
2023-10-21T23:06:58.004Z,8.80
2023-10-21T23:09:30.436Z,6.40
2023-10-21T23:11:58.557Z,10.60
2023-10-21T23:14:28.274Z,11.20
2023-10-21T23:16:56.293Z,14.10
2023-10-21T23:19:24.667Z,7.80
2023-10-21T23:21:52.790Z,10.50
2023-10-21T23:24:20.804Z,7.50
2023-10-21T23:26:49.191Z,11.00
2023-10-21T23:29:17.333Z,9.70
2023-10-21T23:31:45.536Z,5.00
2023-10-21T23:34:13.642Z,3.70
2023-10-21T23:36:41.848Z,3.20
2023-10-21T23:39:13.956Z,3.70
2023-10-21T23:41:42.316Z,4.30
2023-10-21T23:44:10.439Z,3.10
2023-10-21T23:46:38.754Z,3.30
2023-10-21T23:49:07.342Z,3.90
2023-10-21T23:51:35.770Z,5.00
2023-10-21T23:54:04.232Z,4.70
2023-10-21T23:56:32.385Z,3.60
2023-10-21T23:59:01.855Z,1.30
